Strona główna
METAR-TAF:

METAR-TAF

Lotnisko :

Port lotniczy Debreczyn

Debreczyn, Węgry

Szerokość geograficzna: 47-29N, Długość geograficzna: 021-36E, wysokość: 108 m

Aktualna obserwacja pogody

Raport powstał 53 minut temu, godzina 09:15 UTC
Wiatr 6 kt z kierunków zmiennych
Temperatura 11°C
Wilgotność 35%
Ciśnienie 1014 hPa
Widzialność: 9000 m

METAR: LHDC 030915Z AUTO VRB06KT 9000 NCD 11/M04 Q1014

czas: 12:08 (10:08 UTC)


TAF: brakujący

Obserwacja i prognoza pogody dla ponad 4000 lotnisk (raport METAR i TAF).

Dostępne stacje oznaczono żółtymi i czerwonymi punktami na mapie.

Najedź kursorem aby zobaczyć nazwę stacji.

Kliknij aby zobaczyć obserwacje i prognozy pogody.

Aby zmienić mapę: kliknij na zielony przycisk z czarnym krzyżykiem, aby powiększyć; na zielony przycisk z myślnikiem, aby pomniejszyć; na zielone strzałki, aby przejść do map sąsiednich.


METAR-TAF: